createdAt,value
2023-04-04T00:00:47.239Z,11.18
2023-04-04T00:03:14.982Z,11.20
2023-04-04T00:05:43.211Z,11.22
2023-04-04T00:08:11.236Z,11.07
2023-04-04T00:10:39.238Z,11.06
2023-04-04T00:13:07.809Z,10.69
2023-04-04T00:15:36.662Z,10.54
2023-04-04T00:18:04.475Z,10.75
2023-04-04T00:20:32.155Z,10.64
2023-04-04T00:23:00.685Z,10.62
2023-04-04T00:25:28.548Z,10.76
2023-04-04T00:28:01.102Z,10.74
2023-04-04T00:30:30.016Z,10.68
2023-04-04T00:32:58.385Z,10.46
2023-04-04T00:35:26.194Z,10.67
2023-04-04T00:37:53.786Z,10.58
2023-04-04T00:40:21.491Z,10.60
2023-04-04T00:42:49.184Z,10.79
2023-04-04T00:45:16.776Z,10.58
2023-04-04T00:47:45.097Z,10.70
2023-04-04T00:50:12.731Z,11.01
2023-04-04T00:52:41.078Z,10.87
2023-04-04T00:55:08.742Z,10.84
2023-04-04T00:57:36.781Z,10.44
2023-04-04T01:00:06.676Z,10.72
2023-04-04T01:02:35.714Z,9.99
2023-04-04T01:05:04.639Z,10.26
2023-04-04T01:07:32.950Z,10.51
2023-04-04T01:10:02.787Z,10.82
2023-04-04T01:12:31.493Z,11.00
2023-04-04T01:14:59.175Z,10.65
2023-04-04T01:17:28.145Z,10.55
2023-04-04T01:20:22.601Z,10.67
2023-04-04T01:22:57.012Z,10.46
2023-04-04T01:25:32.965Z,10.32
2023-04-04T01:28:07.448Z,10.37
2023-04-04T01:30:37.086Z,10.54
2023-04-04T01:33:21.201Z,10.33
2023-04-04T01:36:10.978Z,10.39
2023-04-04T01:38:46.267Z,10.65
2023-04-04T01:41:15.405Z,10.44
2023-04-04T01:43:51.888Z,9.91
2023-04-04T01:46:19.921Z,9.81
2023-04-04T01:48:50.043Z,9.96
2023-04-04T01:51:23.929Z,10.49
2023-04-04T01:53:53.225Z,10.54
2023-04-04T01:56:20.973Z,10.66
2023-04-04T01:58:48.540Z,10.74
2023-04-04T02:01:19.016Z,10.60
2023-04-04T02:03:47.801Z,10.40
2023-04-04T02:06:15.776Z,10.08
2023-04-04T02:08:43.597Z,9.83
2023-04-04T02:11:12.391Z,9.87
2023-04-04T02:13:44.281Z,9.80
2023-04-04T02:16:15.908Z,9.61
2023-04-04T02:18:44.081Z,9.56
2023-04-04T02:21:11.849Z,9.46
2023-04-04T02:23:39.379Z,9.35
2023-04-04T02:26:07.063Z,9.28
2023-04-04T02:28:34.949Z,9.42
2023-04-04T02:31:03.214Z,9.67
2023-04-04T02:33:31.948Z,9.29
2023-04-04T02:36:02.833Z,9.23
2023-04-04T02:38:31.132Z,9.21
2023-04-04T02:41:00.986Z,9.07
2023-04-04T02:43:28.623Z,9.20
2023-04-04T02:45:57.766Z,9.03
2023-04-04T02:48:28.960Z,9.06
2023-04-04T02:51:03.017Z,9.24
2023-04-04T02:53:31.742Z,9.33
2023-04-04T02:56:05.565Z,9.26
2023-04-04T02:58:34.463Z,9.25
2023-04-04T03:01:02.126Z,9.10
2023-04-04T03:03:37.495Z,8.95
2023-04-04T03:06:05.564Z,8.86
2023-04-04T03:08:33.160Z,9.00
2023-04-04T03:11:01.122Z,8.93
2023-04-04T03:13:28.643Z,9.13
2023-04-04T03:16:03.484Z,8.92
2023-04-04T03:18:41.777Z,9.32
2023-04-04T03:21:09.657Z,9.24
2023-04-04T03:23:37.249Z,9.69
2023-04-04T03:26:05.034Z,9.81
2023-04-04T03:28:32.845Z,9.66
2023-04-04T03:31:07.973Z,9.48
2023-04-04T03:33:39.738Z,9.64
2023-04-04T03:36:13.826Z,9.86
2023-04-04T03:38:41.624Z,9.76
2023-04-04T03:41:11.461Z,9.94
2023-04-04T03:43:39.243Z,9.31
2023-04-04T03:46:07.551Z,9.45
2023-04-04T03:48:35.192Z,9.10
2023-04-04T03:51:05.938Z,9.16
2023-04-04T03:53:35.856Z,9.07
2023-04-04T03:56:03.742Z,8.75
2023-04-04T03:58:31.515Z,8.55
2023-04-04T04:00:59.334Z,8.54
2023-04-04T04:03:30.677Z,8.71
2023-04-04T04:06:00.083Z,8.45
2023-04-04T04:08:28.046Z,8.29
2023-04-04T04:10:55.793Z,8.41
2023-04-04T04:13:23.454Z,8.51
2023-04-04T04:15:52.162Z,8.58
2023-04-04T04:18:22.783Z,8.70
2023-04-04T04:20:58.063Z,8.38
2023-04-04T04:23:26.549Z,8.55
2023-04-04T04:25:54.617Z,8.39
2023-04-04T04:28:34.084Z,8.48
2023-04-04T04:31:09.009Z,8.41
2023-04-04T04:33:42.906Z,8.42
2023-04-04T04:36:11.583Z,8.34
2023-04-04T04:39:05.296Z,8.36
2023-04-04T04:41:38.632Z,8.23
2023-04-04T04:44:07.181Z,8.31
2023-04-04T04:46:34.761Z,8.38
2023-04-04T04:49:06.565Z,8.36
2023-04-04T04:51:34.456Z,8.41
2023-04-04T04:54:02.084Z,8.18
2023-04-04T04:56:30.800Z,8.34
2023-04-04T04:59:07.541Z,8.26
2023-04-04T05:01:36.316Z,8.04
2023-04-04T05:04:04.397Z,7.78
2023-04-04T05:06:39.715Z,8.23
2023-04-04T05:09:11.485Z,8.23
2023-04-04T05:11:39.893Z,8.21
2023-04-04T05:14:10.521Z,8.22
2023-04-04T05:16:48.705Z,8.34
2023-04-04T05:19:18.698Z,8.33
2023-04-04T05:21:51.424Z,8.43
2023-04-04T05:24:29.513Z,8.43
2023-04-04T05:26:58.749Z,8.80
2023-04-04T05:29:26.553Z,9.11
2023-04-04T05:31:56.283Z,9.21
2023-04-04T05:34:24.725Z,8.86
2023-04-04T05:36:53.147Z,8.89
2023-04-04T05:39:27.204Z,8.86
2023-04-04T05:42:03.340Z,8.58
2023-04-04T05:44:37.358Z,8.59
2023-04-04T05:47:06.655Z,8.61
2023-04-04T05:49:34.637Z,8.72
2023-04-04T05:52:02.935Z,9.05
2023-04-04T05:54:32.109Z,8.72
2023-04-04T05:57:03.176Z,9.05
2023-04-04T05:59:41.412Z,8.89
2023-04-04T06:02:11.555Z,8.43
2023-04-04T06:04:45.464Z,8.64
2023-04-04T06:07:17.151Z,8.50
2023-04-04T06:09:44.781Z,8.46
2023-04-04T06:12:12.661Z,8.50
2023-04-04T06:14:41.875Z,8.79
2023-04-04T06:17:10.506Z,9.17
2023-04-04T06:19:38.510Z,9.36
2023-04-04T06:22:06.587Z,8.78
2023-04-04T06:24:37.609Z,9.25
2023-04-04T06:27:06.673Z,9.24
2023-04-04T06:29:36.902Z,9.33
2023-04-04T06:32:06.367Z,9.18
2023-04-04T06:34:38.666Z,9.34
2023-04-04T06:37:07.190Z,9.82
2023-04-04T06:39:55.219Z,9.66
2023-04-04T06:42:27.092Z,9.62
2023-04-04T06:44:55.422Z,9.27
2023-04-04T06:47:23.502Z,9.42
2023-04-04T06:49:51.554Z,9.08
2023-04-04T06:52:19.388Z,9.16
2023-04-04T06:54:47.438Z,9.51
2023-04-04T06:57:15.979Z,9.62
2023-04-04T06:59:45.209Z,9.44
2023-04-04T07:02:13.095Z,9.52
2023-04-04T07:04:41.115Z,9.56
2023-04-04T07:07:08.729Z,9.67
2023-04-04T07:09:36.474Z,9.84
2023-04-04T07:12:04.916Z,10.38
2023-04-04T07:14:33.080Z,10.00
2023-04-04T07:17:05.492Z,10.18
2023-04-04T07:19:35.966Z,10.23
2023-04-04T07:22:03.830Z,10.07
2023-04-04T07:24:31.715Z,10.01
2023-04-04T07:26:59.730Z,10.21
2023-04-04T07:29:27.472Z,9.97
2023-04-04T07:31:55.396Z,10.44
2023-04-04T07:34:23.650Z,10.67
2023-04-04T07:36:51.204Z,10.54
2023-04-04T07:39:18.838Z,10.63
2023-04-04T07:41:46.773Z,10.77
2023-04-04T07:44:14.347Z,10.52
2023-04-04T07:46:46.380Z,10.72
2023-04-04T07:49:15.405Z,10.76
2023-04-04T07:51:42.964Z,10.90
2023-04-04T07:54:10.962Z,11.35
2023-04-04T07:56:38.899Z,11.25
2023-04-04T07:59:07.452Z,10.78
2023-04-04T08:01:35.074Z,11.27
2023-04-04T08:04:02.812Z,11.18
2023-04-04T08:06:31.189Z,11.09
2023-04-04T08:08:59.978Z,11.35
2023-04-04T08:11:27.831Z,11.36
2023-04-04T08:13:55.831Z,11.20
2023-04-04T08:16:23.946Z,11.76
2023-04-04T08:18:51.736Z,11.24
2023-04-04T08:21:19.383Z,11.40
2023-04-04T08:23:46.918Z,11.30
2023-04-04T08:26:15.642Z,11.55
2023-04-04T08:28:44.076Z,11.37
2023-04-04T08:31:12.665Z,11.58
2023-04-04T08:33:47.382Z,11.37
2023-04-04T08:36:16.538Z,11.83
2023-04-04T08:38:44.700Z,11.70
2023-04-04T08:41:13.213Z,11.70
2023-04-04T08:43:43.746Z,11.68
2023-04-04T08:46:12.854Z,12.15
2023-04-04T08:48:45.894Z,11.96
2023-04-04T08:51:14.721Z,12.17
2023-04-04T08:53:42.850Z,11.97
2023-04-04T08:56:11.161Z,12.24
2023-04-04T08:58:41.966Z,11.62
2023-04-04T09:01:10.850Z,11.69
2023-04-04T09:03:38.789Z,11.31
2023-04-04T09:06:07.477Z,11.28
2023-04-04T09:08:35.685Z,11.68
2023-04-04T09:11:04.699Z,11.99
2023-04-04T09:13:32.605Z,12.55
2023-04-04T09:16:01.256Z,12.73
2023-04-04T09:18:29.422Z,12.89
2023-04-04T09:20:57.266Z,12.64
2023-04-04T09:23:26.204Z,12.77
2023-04-04T09:28:26.486Z,11.88
2023-04-04T09:30:54.297Z,12.25
2023-04-04T09:33:26.907Z,12.97
2023-04-04T09:36:07.266Z,12.58
2023-04-04T09:38:38.689Z,12.37
2023-04-04T09:41:10.958Z,13.08
2023-04-04T09:43:40.240Z,13.40
2023-04-04T09:46:10.199Z,13.66
2023-04-04T09:48:38.196Z,13.76
2023-04-04T09:51:13.053Z,13.58
2023-04-04T09:53:43.934Z,13.39
2023-04-04T09:56:11.809Z,13.53
2023-04-04T09:58:46.315Z,13.62
2023-04-04T10:01:20.904Z,13.34
2023-04-04T10:03:54.552Z,13.56
2023-04-04T10:06:22.991Z,13.83
2023-04-04T10:08:51.217Z,13.87
2023-04-04T10:11:33.525Z,13.71
2023-04-04T10:14:05.665Z,13.50
2023-04-04T10:16:38.421Z,13.40
2023-04-04T10:19:09.396Z,13.88
2023-04-04T10:21:37.352Z,13.97
2023-04-04T10:24:10.132Z,14.44
2023-04-04T10:26:38.296Z,14.33
2023-04-04T10:29:08.442Z,13.43
2023-04-04T10:31:41.548Z,13.60
2023-04-04T10:34:15.309Z,13.28
2023-04-04T10:36:46.705Z,13.83
2023-04-04T10:39:28.910Z,14.13
2023-04-04T10:41:57.802Z,14.53
2023-04-04T10:44:40.670Z,13.83
2023-04-04T10:47:22.110Z,13.71
2023-04-04T10:49:52.253Z,14.07
2023-04-04T10:52:22.908Z,13.90
2023-04-04T10:54:54.898Z,14.24
2023-04-04T10:57:23.990Z,14.94
2023-04-04T10:59:58.918Z,14.22
2023-04-04T11:03:00.579Z,14.35
2023-04-04T11:05:51.641Z,14.76
2023-04-04T11:08:25.592Z,14.17
2023-04-04T11:10:54.923Z,14.07
2023-04-04T11:13:32.773Z,14.29
2023-04-04T11:16:01.999Z,14.24
2023-04-04T11:18:37.200Z,14.56
2023-04-04T11:21:11.665Z,14.59
2023-04-04T11:23:48.455Z,14.20
2023-04-04T11:26:28.823Z,14.52
2023-04-04T11:29:04.930Z,14.61
2023-04-04T11:31:43.275Z,14.25
2023-04-04T11:34:12.306Z,14.07
2023-04-04T11:36:45.592Z,14.69
2023-04-04T11:39:24.318Z,14.60
2023-04-04T11:41:57.519Z,14.39
2023-04-04T11:44:30.571Z,14.50
2023-04-04T11:47:04.407Z,14.02
2023-04-04T11:49:35.625Z,14.18
2023-04-04T11:52:09.077Z,14.97
2023-04-04T11:54:40.504Z,15.10
2023-04-04T11:57:11.594Z,15.09
2023-04-04T11:59:41.466Z,14.58
2023-04-04T12:02:10.624Z,14.69
2023-04-04T12:04:43.430Z,15.00
2023-04-04T12:07:18.016Z,14.82
2023-04-04T12:09:46.321Z,13.97
2023-04-04T12:12:16.355Z,14.15
2023-04-04T12:14:45.475Z,14.44
2023-04-04T12:17:15.586Z,14.52
2023-04-04T12:19:44.523Z,14.56
2023-04-04T12:22:12.588Z,14.91
2023-04-04T12:24:40.356Z,14.45
2023-04-04T12:27:08.450Z,14.84
2023-04-04T12:29:37.639Z,14.44
2023-04-04T12:32:06.766Z,14.58
2023-04-04T12:34:36.724Z,14.64
2023-04-04T12:37:04.614Z,14.54
2023-04-04T12:39:32.256Z,15.58
2023-04-04T12:42:03.812Z,15.66
2023-04-04T12:44:36.180Z,15.88
2023-04-04T12:47:08.872Z,16.07
2023-04-04T12:49:44.733Z,15.59
2023-04-04T12:52:20.966Z,15.02
2023-04-04T12:54:59.138Z,15.43
2023-04-04T12:57:37.007Z,15.98
2023-04-04T13:00:07.853Z,16.61
2023-04-04T13:02:37.508Z,15.66
2023-04-04T13:05:07.786Z,15.42
2023-04-04T13:07:44.697Z,15.62
2023-04-04T13:10:16.416Z,15.69
2023-04-04T13:13:04.234Z,15.15
2023-04-04T13:15:51.254Z,14.94
2023-04-04T13:18:22.138Z,15.25
2023-04-04T13:20:54.572Z,15.03
2023-04-04T13:23:22.971Z,15.50
2023-04-04T13:25:51.406Z,14.87
2023-04-04T13:28:18.901Z,14.93
2023-04-04T13:30:49.951Z,15.28
2023-04-04T13:33:22.442Z,15.58
2023-04-04T13:35:50.882Z,15.83
2023-04-04T13:38:18.423Z,15.35
2023-04-04T13:40:46.110Z,15.10
2023-04-04T13:43:15.429Z,14.76
2023-04-04T13:45:43.812Z,15.63
2023-04-04T13:48:11.607Z,15.22
2023-04-04T13:50:43.553Z,14.33
2023-04-04T13:53:11.528Z,14.54
2023-04-04T13:55:43.986Z,14.65
2023-04-04T13:58:20.052Z,15.02
2023-04-04T14:00:48.879Z,14.92
2023-04-04T14:03:17.062Z,14.98
2023-04-04T14:05:44.725Z,14.86
2023-04-04T14:08:12.237Z,14.89
2023-04-04T14:10:39.989Z,14.47
2023-04-04T14:13:07.724Z,14.68
2023-04-04T14:15:35.418Z,14.82
2023-04-04T14:18:02.975Z,14.62
2023-04-04T14:20:30.855Z,15.00
2023-04-04T14:22:58.925Z,15.23
2023-04-04T14:25:26.656Z,15.20
2023-04-04T14:27:54.220Z,15.07
2023-04-04T14:30:21.793Z,14.91
2023-04-04T14:32:51.250Z,15.20
2023-04-04T14:35:20.130Z,14.69
2023-04-04T14:37:49.236Z,14.69
2023-04-04T14:40:16.835Z,14.62
2023-04-04T14:42:44.360Z,14.44
2023-04-04T14:45:12.845Z,14.07
2023-04-04T14:47:40.646Z,14.16
2023-04-04T14:50:09.271Z,14.84
2023-04-04T14:52:36.889Z,14.72
2023-04-04T14:55:05.210Z,14.52
2023-04-04T14:57:39.301Z,14.44
2023-04-04T15:00:11.684Z,14.53
2023-04-04T15:02:39.185Z,14.38
2023-04-04T15:05:07.540Z,14.28
2023-04-04T15:07:35.154Z,13.87
2023-04-04T15:10:02.815Z,14.08
2023-04-04T15:12:30.343Z,14.07
2023-04-04T15:14:58.231Z,14.34
2023-04-04T15:17:26.141Z,14.42
2023-04-04T15:19:53.904Z,14.29
2023-04-04T15:22:21.501Z,14.70
2023-04-04T15:24:49.171Z,14.53
2023-04-04T15:27:17.221Z,14.36
2023-04-04T15:29:44.973Z,14.11
2023-04-04T15:32:13.331Z,13.75
2023-04-04T15:34:41.138Z,13.82
2023-04-04T15:37:09.757Z,13.59
2023-04-04T15:39:42.845Z,13.86
2023-04-04T15:42:20.946Z,14.06
2023-04-04T15:44:49.072Z,13.98
2023-04-04T15:47:17.069Z,14.08
2023-04-04T15:49:47.218Z,14.18
2023-04-04T15:52:15.660Z,14.04
2023-04-04T15:54:43.210Z,14.01
2023-04-04T15:57:11.134Z,14.05
2023-04-04T15:59:38.700Z,14.05
2023-04-04T16:02:07.399Z,14.00
2023-04-04T16:04:36.232Z,13.86
2023-04-04T16:07:04.273Z,14.04
2023-04-04T16:09:35.078Z,14.00
2023-04-04T16:12:03.285Z,13.99
2023-04-04T16:14:31.189Z,13.47
2023-04-04T16:16:59.464Z,13.70
2023-04-04T16:19:27.524Z,13.82
2023-04-04T16:21:55.678Z,13.78
2023-04-04T16:24:29.927Z,13.99
2023-04-04T16:26:58.416Z,13.71
2023-04-04T16:29:34.095Z,14.27
2023-04-04T16:32:14.185Z,14.03
2023-04-04T16:34:41.656Z,13.77
2023-04-04T16:37:12.057Z,13.55
2023-04-04T16:39:39.963Z,13.62
2023-04-04T16:42:07.818Z,13.59
2023-04-04T16:44:35.890Z,13.34
2023-04-04T16:47:03.971Z,12.99
2023-04-04T16:49:32.045Z,13.25
2023-04-04T16:51:59.834Z,13.29
2023-04-04T16:54:27.785Z,13.36
2023-04-04T16:56:56.324Z,13.28
2023-04-04T16:59:23.989Z,13.32
2023-04-04T17:01:51.898Z,13.47
2023-04-04T17:04:20.036Z,13.47
2023-04-04T17:06:48.683Z,13.54
2023-04-04T17:09:16.726Z,13.57
2023-04-04T17:11:47.181Z,13.54
2023-04-04T17:14:15.213Z,13.31
2023-04-04T17:16:45.702Z,13.17
2023-04-04T17:19:13.841Z,13.18
2023-04-04T17:21:41.632Z,13.09
2023-04-04T17:24:09.518Z,12.83
2023-04-04T17:26:40.074Z,13.10
2023-04-04T17:29:08.214Z,12.85
2023-04-04T17:31:35.979Z,12.73
2023-04-04T17:34:04.102Z,12.54
2023-04-04T17:36:32.561Z,12.62
2023-04-04T17:39:00.196Z,12.35
2023-04-04T17:41:28.844Z,12.06
2023-04-04T17:43:57.377Z,12.18
2023-04-04T17:46:25.685Z,12.17
2023-04-04T17:48:53.645Z,12.34
2023-04-04T17:51:21.983Z,12.06
2023-04-04T17:53:51.347Z,12.17
2023-04-04T17:56:20.089Z,12.36
2023-04-04T17:58:48.360Z,12.15
2023-04-04T18:01:16.499Z,12.22
2023-04-04T18:03:46.188Z,12.44
2023-04-04T18:06:14.859Z,12.23
2023-04-04T18:08:43.096Z,12.18
2023-04-04T18:11:11.639Z,11.81
2023-04-04T18:13:39.293Z,12.03
2023-04-04T18:16:07.488Z,11.75
2023-04-04T18:18:36.091Z,12.04
2023-04-04T18:21:03.985Z,11.96
2023-04-04T18:23:32.035Z,11.73
2023-04-04T18:26:00.966Z,11.58
2023-04-04T18:28:29.283Z,11.45
2023-04-04T18:30:59.066Z,11.72
2023-04-04T18:33:28.956Z,11.71
2023-04-04T18:36:02.022Z,11.60
2023-04-04T18:38:29.933Z,11.76
2023-04-04T18:40:57.777Z,11.91
2023-04-04T18:43:25.472Z,11.55
2023-04-04T18:45:54.760Z,11.46
2023-04-04T18:48:25.152Z,11.75
2023-04-04T18:50:53.193Z,11.55
2023-04-04T18:53:21.670Z,11.65
2023-04-04T18:55:49.458Z,11.51
2023-04-04T18:58:17.113Z,11.74
2023-04-04T19:00:46.303Z,11.78
2023-04-04T19:03:15.169Z,11.84
2023-04-04T19:05:47.957Z,11.95
2023-04-04T19:08:17.473Z,12.08
2023-04-04T19:10:51.208Z,11.80
2023-04-04T19:13:19.047Z,11.53
2023-04-04T19:15:47.042Z,11.73
2023-04-04T19:18:14.753Z,11.61
2023-04-04T19:20:43.738Z,11.78
2023-04-04T19:23:11.412Z,12.11
2023-04-04T19:25:39.500Z,11.84
2023-04-04T19:28:07.348Z,11.89
2023-04-04T19:30:42.168Z,11.55
2023-04-04T19:33:15.544Z,11.07
2023-04-04T19:36:04.735Z,11.08
2023-04-04T19:38:34.719Z,11.69
2023-04-04T19:41:16.823Z,12.05
2023-04-04T19:43:46.069Z,11.60
2023-04-04T19:46:24.057Z,11.55
2023-04-04T19:48:54.110Z,11.17
2023-04-04T19:51:21.731Z,11.45
2023-04-04T19:53:55.287Z,11.25
2023-04-04T19:56:28.176Z,10.67
2023-04-04T19:58:58.898Z,10.72
2023-04-04T20:01:29.308Z,10.57
2023-04-04T20:03:58.028Z,10.30
2023-04-04T20:06:28.381Z,10.46
2023-04-04T20:08:57.913Z,10.55
2023-04-04T20:11:31.314Z,10.64
2023-04-04T20:14:05.441Z,10.62
2023-04-04T20:16:34.020Z,10.58
2023-04-04T20:19:06.331Z,10.53
2023-04-04T20:21:35.616Z,10.46
2023-04-04T20:24:08.728Z,10.28
2023-04-04T20:26:36.586Z,10.55
2023-04-04T20:29:11.791Z,10.35
2023-04-04T20:31:45.031Z,10.48
2023-04-04T20:34:46.975Z,10.65
2023-04-04T20:37:20.107Z,10.49
2023-04-04T20:39:58.980Z,10.68
2023-04-04T20:42:32.971Z,10.56
2023-04-04T20:45:26.977Z,10.34
2023-04-04T20:47:57.917Z,10.52
2023-04-04T20:50:27.244Z,10.34
2023-04-04T20:53:06.274Z,10.40
2023-04-04T20:55:35.641Z,10.49
2023-04-04T20:58:09.452Z,10.39
2023-04-04T21:00:42.474Z,10.64
2023-04-04T21:03:25.413Z,10.51
2023-04-04T21:05:58.438Z,10.50
2023-04-04T21:08:27.021Z,10.52
2023-04-04T21:10:57.452Z,10.59
2023-04-04T21:13:32.272Z,10.51
2023-04-04T21:16:03.285Z,10.48
2023-04-04T21:18:35.569Z,10.38
2023-04-04T21:21:32.883Z,10.47
2023-04-04T21:24:01.098Z,10.33
2023-04-04T21:26:34.774Z,10.45
2023-04-04T21:29:17.045Z,10.75
2023-04-04T21:31:46.570Z,10.63
2023-04-04T21:34:25.175Z,10.21
2023-04-04T21:39:45.218Z,10.93
2023-04-04T21:42:13.659Z,11.44
2023-04-04T21:44:42.157Z,10.76
2023-04-04T21:47:10.288Z,10.23
2023-04-04T21:49:37.868Z,9.90
2023-04-04T21:52:05.709Z,10.46
2023-04-04T21:54:33.698Z,10.42
2023-04-04T21:57:01.378Z,10.26
2023-04-04T21:59:29.006Z,10.20
2023-04-04T22:01:57.043Z,9.83
2023-04-04T22:04:25.222Z,9.99
2023-04-04T22:06:52.739Z,9.91
2023-04-04T22:09:22.647Z,10.05
2023-04-04T22:11:50.300Z,10.53
2023-04-04T22:14:18.284Z,10.28
2023-04-04T22:16:46.367Z,10.07
2023-04-04T22:19:14.650Z,10.14
2023-04-04T22:21:47.326Z,10.63
2023-04-04T22:24:15.713Z,10.65
2023-04-04T22:26:46.019Z,10.78
2023-04-04T22:29:13.983Z,10.57
2023-04-04T22:31:44.518Z,10.57
2023-04-04T22:34:14.659Z,10.58
2023-04-04T22:36:44.169Z,9.89
2023-04-04T22:39:12.337Z,10.22
2023-04-04T22:41:40.075Z,10.07
2023-04-04T22:44:08.320Z,10.05
2023-04-04T22:46:35.990Z,10.38
2023-04-04T22:49:07.244Z,10.07
2023-04-04T22:51:43.993Z,10.23
2023-04-04T22:54:14.760Z,10.41
2023-04-04T22:56:42.470Z,10.62
2023-04-04T22:59:11.430Z,10.40
2023-04-04T23:01:39.258Z,10.36
2023-04-04T23:04:07.165Z,10.58
2023-04-04T23:06:35.921Z,10.08
2023-04-04T23:09:03.495Z,9.79
2023-04-04T23:11:31.458Z,9.91
2023-04-04T23:13:59.543Z,9.56
2023-04-04T23:16:29.063Z,9.34
2023-04-04T23:18:57.314Z,9.31
2023-04-04T23:21:25.145Z,9.79
2023-04-04T23:23:52.627Z,10.06
2023-04-04T23:26:20.184Z,9.98
2023-04-04T23:28:48.304Z,9.58
2023-04-04T23:31:16.954Z,9.66
2023-04-04T23:33:44.823Z,9.47
2023-04-04T23:36:12.888Z,9.38
2023-04-04T23:38:40.437Z,9.43
2023-04-04T23:41:08.136Z,9.06
2023-04-04T23:43:36.151Z,9.29
2023-04-04T23:46:04.310Z,9.06
2023-04-04T23:48:32.703Z,9.63
2023-04-04T23:51:03.574Z,9.23
2023-04-04T23:53:31.633Z,9.48
2023-04-04T23:55:59.231Z,9.59
2023-04-04T23:58:26.895Z,9.25
